createdAt,value
2023-09-20T00:00:37.291Z,21.31
2023-09-20T00:05:34.142Z,21.43
2023-09-20T00:10:31.677Z,21.00
2023-09-20T00:15:30.737Z,21.43
2023-09-20T00:20:27.734Z,21.53
2023-09-20T00:25:25.371Z,21.43
2023-09-20T00:30:22.983Z,21.46
2023-09-20T00:35:20.159Z,21.41
2023-09-20T00:40:19.468Z,21.39
2023-09-20T00:45:16.798Z,21.36
2023-09-20T00:50:15.931Z,21.34
2023-09-20T00:55:21.212Z,21.07
2023-09-20T01:00:22.160Z,21.02
2023-09-20T01:05:22.367Z,21.29
2023-09-20T01:10:23.359Z,21.28
2023-09-20T01:15:21.853Z,21.27
2023-09-20T01:20:19.868Z,20.92
2023-09-20T01:25:22.529Z,21.22
2023-09-20T01:30:19.321Z,21.08
2023-09-20T01:35:17.229Z,21.27
2023-09-20T01:40:16.079Z,21.24
2023-09-20T01:45:16.621Z,21.24
2023-09-20T01:50:14.228Z,21.24
2023-09-20T01:55:15.833Z,21.33
2023-09-20T02:00:23.398Z,21.27
2023-09-20T02:05:21.721Z,21.22
2023-09-20T02:10:18.936Z,21.34
2023-09-20T02:15:18.359Z,21.22
2023-09-20T02:20:19.960Z,21.35
2023-09-20T02:25:20.915Z,21.38
2023-09-20T02:30:23.336Z,21.40
2023-09-20T02:35:20.994Z,21.28
2023-09-20T02:40:18.833Z,21.41
2023-09-20T02:45:16.676Z,21.49
2023-09-20T02:50:17.359Z,21.43
2023-09-20T02:55:17.626Z,21.36
2023-09-20T03:00:17.534Z,21.37
2023-09-20T03:05:22.217Z,21.47
2023-09-20T03:10:21.764Z,21.53
2023-09-20T03:15:22.339Z,21.57
2023-09-20T03:20:25.099Z,21.56
2023-09-20T03:25:29.476Z,21.51
2023-09-20T03:30:28.642Z,21.57
2023-09-20T03:35:26.261Z,21.72
2023-09-20T03:40:23.722Z,21.53
2023-09-20T03:45:24.242Z,21.58
2023-09-20T03:50:22.909Z,21.79
2023-09-20T03:55:22.084Z,21.77
2023-09-20T04:00:28.550Z,21.80
2023-09-20T04:05:44.392Z,21.83
2023-09-20T04:10:43.975Z,22.04
2023-09-20T04:15:52.725Z,22.12
2023-09-20T04:20:54.194Z,22.05
2023-09-20T04:25:52.565Z,22.31
2023-09-20T04:30:51.617Z,22.46
2023-09-20T04:35:48.957Z,22.36
2023-09-20T04:40:53.889Z,22.70
2023-09-20T04:45:52.816Z,22.76
2023-09-20T04:50:50.233Z,22.86
2023-09-20T04:55:47.237Z,22.91
2023-09-20T05:00:45.068Z,22.94
2023-09-20T05:05:45.821Z,22.98
2023-09-20T05:10:43.105Z,22.75
2023-09-20T05:15:40.585Z,22.57
2023-09-20T05:20:39.200Z,23.08
2023-09-20T05:25:36.741Z,22.55
2023-09-20T05:30:34.057Z,22.91
2023-09-20T05:35:30.886Z,23.20
2023-09-20T05:40:28.826Z,23.26
2023-09-20T05:45:27.371Z,23.18
2023-09-20T05:50:33.707Z,23.52
2023-09-20T05:55:33.311Z,23.66
2023-09-20T06:00:39.398Z,24.03
2023-09-20T06:05:37.798Z,23.89
2023-09-20T06:10:35.324Z,24.70
2023-09-20T06:15:32.200Z,24.89
2023-09-20T06:20:29.147Z,25.18
2023-09-20T06:25:27.448Z,25.27
2023-09-20T06:30:28.509Z,25.85
2023-09-20T06:35:25.613Z,26.25
2023-09-20T06:40:23.792Z,26.50
2023-09-20T06:45:21.066Z,26.58
2023-09-20T06:50:19.197Z,26.95
2023-09-20T06:55:17.876Z,27.20
2023-09-20T07:00:27.502Z,27.48
2023-09-20T07:05:28.756Z,27.56
2023-09-20T07:10:26.865Z,27.60
2023-09-20T07:15:26.148Z,27.40
2023-09-20T07:20:23.278Z,27.32
2023-09-20T07:25:21.465Z,27.47
2023-09-20T07:30:20.812Z,26.80
2023-09-20T07:35:28.081Z,27.25
2023-09-20T07:40:54.301Z,27.18
2023-09-20T07:46:01.442Z,27.32
2023-09-20T07:50:59.228Z,27.00
2023-09-20T07:56:02.127Z,27.23
2023-09-20T08:01:00.476Z,27.23
2023-09-20T08:05:57.692Z,27.19
2023-09-20T08:11:10.859Z,27.04
2023-09-20T08:16:16.320Z,26.92
2023-09-20T08:21:13.378Z,26.64
2023-09-20T08:26:28.650Z,26.62
2023-09-20T08:31:44.860Z,26.72
2023-09-20T08:37:01.865Z,26.89
2023-09-20T08:42:16.752Z,26.77
2023-09-20T08:47:34.428Z,26.95
2023-09-20T08:52:49.457Z,27.03
2023-09-20T08:58:04.921Z,26.63
2023-09-20T09:03:05.937Z,26.88
2023-09-20T09:08:06.375Z,27.17
2023-09-20T09:13:06.776Z,26.88
2023-09-20T09:18:19.918Z,27.36
2023-09-20T09:23:36.985Z,27.14
2023-09-20T09:28:37.138Z,27.61
2023-09-20T09:33:38.700Z,27.52
2023-09-20T09:38:36.066Z,27.38
2023-09-20T09:43:33.796Z,27.37
2023-09-20T09:48:36.132Z,26.68
2023-09-20T09:53:38.080Z,27.12
2023-09-20T09:58:35.315Z,27.20
2023-09-20T10:03:34.877Z,27.65
2023-09-20T10:08:36.804Z,27.91
2023-09-20T10:13:36.777Z,28.08
2023-09-20T10:18:34.724Z,27.92
2023-09-20T10:23:37.740Z,28.13
2023-09-20T10:28:41.921Z,28.74
2023-09-20T10:33:42.703Z,28.83
2023-09-20T10:38:45.107Z,29.03
2023-09-20T10:43:46.954Z,28.94
2023-09-20T10:48:49.759Z,29.15
2023-09-20T10:53:57.065Z,29.47
2023-09-20T10:58:57.609Z,29.86
2023-09-20T11:03:58.511Z,30.21
2023-09-20T11:08:57.274Z,30.63
2023-09-20T11:13:55.329Z,30.96
2023-09-20T11:18:52.873Z,30.90
2023-09-20T11:23:49.945Z,30.73
2023-09-20T11:28:46.944Z,31.25
2023-09-20T11:33:46.126Z,31.38
2023-09-20T11:38:47.764Z,31.10
2023-09-20T11:43:46.495Z,31.33
2023-09-20T11:48:48.455Z,31.35
2023-09-20T11:53:46.023Z,30.68
2023-09-20T11:58:45.753Z,30.00
2023-09-20T12:03:43.071Z,29.46
2023-09-20T12:08:41.154Z,28.97
2023-09-20T12:13:38.675Z,28.78
2023-09-20T12:18:37.289Z,28.68
2023-09-20T12:23:35.805Z,28.12
2023-09-20T12:28:34.085Z,28.29
2023-09-20T12:33:33.310Z,28.18
2023-09-20T12:38:30.447Z,28.22
2023-09-20T12:43:40.352Z,27.89
2023-09-20T12:48:39.109Z,28.18
2023-09-20T12:53:45.577Z,27.80
2023-09-20T12:58:43.593Z,28.26
2023-09-20T13:03:41.981Z,28.23
2023-09-20T13:08:39.479Z,28.11
2023-09-20T13:13:38.644Z,27.66
2023-09-20T13:18:38.782Z,27.72
2023-09-20T13:23:36.642Z,27.49
2023-09-20T13:28:33.757Z,27.37
2023-09-20T13:33:31.514Z,27.25
2023-09-20T13:38:30.385Z,26.74
2023-09-20T13:43:28.331Z,27.33
2023-09-20T13:48:25.694Z,27.40
2023-09-20T13:53:22.967Z,27.42
2023-09-20T13:58:20.664Z,26.82
2023-09-20T14:03:17.695Z,27.33
2023-09-20T14:08:14.707Z,27.29
2023-09-20T14:13:11.842Z,27.01
2023-09-20T14:18:09.953Z,26.83
2023-09-20T14:23:07.624Z,27.28
2023-09-20T14:28:05.149Z,26.79
2023-09-20T14:33:04.198Z,27.04
2023-09-20T14:38:03.196Z,26.84
2023-09-20T14:43:00.590Z,27.26
2023-09-20T14:48:03.345Z,27.17
2023-09-20T14:53:04.117Z,27.28
2023-09-20T14:58:01.762Z,27.04
2023-09-20T15:03:02.807Z,27.20
2023-09-20T15:08:05.706Z,26.77
2023-09-20T15:13:04.585Z,26.73
2023-09-20T15:18:03.129Z,27.26
2023-09-20T15:23:01.710Z,27.25
2023-09-20T15:27:59.661Z,27.33
2023-09-20T15:32:57.434Z,27.11
2023-09-20T15:37:56.548Z,27.17
2023-09-20T15:42:55.941Z,27.15
2023-09-20T15:47:52.975Z,27.35
2023-09-20T15:52:50.737Z,27.16
2023-09-20T15:57:47.632Z,26.81
2023-09-20T16:02:45.240Z,27.04
2023-09-20T16:07:42.651Z,27.14
2023-09-20T16:12:40.213Z,27.07
2023-09-20T16:17:38.593Z,26.48
2023-09-20T16:22:35.803Z,26.93
2023-09-20T16:27:53.182Z,26.88
2023-09-20T16:32:51.801Z,26.42
2023-09-20T16:37:50.273Z,26.62
2023-09-20T16:42:48.460Z,26.41
2023-09-20T16:47:46.786Z,26.42
2023-09-20T16:52:47.182Z,26.02
2023-09-20T16:57:48.167Z,26.30
2023-09-20T17:02:48.186Z,26.23
2023-09-20T17:07:45.907Z,26.05
2023-09-20T17:12:42.733Z,25.89
2023-09-20T17:17:40.836Z,25.81
2023-09-20T17:22:38.312Z,25.86
2023-09-20T17:27:36.469Z,25.77
2023-09-20T17:32:33.513Z,25.68
2023-09-20T17:37:35.840Z,25.33
2023-09-20T17:42:36.064Z,25.35
2023-09-20T17:47:46.602Z,25.33
2023-09-20T17:52:48.806Z,25.39
2023-09-20T17:57:46.989Z,25.27
2023-09-20T18:02:47.022Z,24.97
2023-09-20T18:07:43.974Z,25.18
2023-09-20T18:12:41.091Z,25.19
2023-09-20T18:17:40.910Z,25.15
2023-09-20T18:22:41.876Z,24.84
2023-09-20T18:27:39.321Z,24.69
2023-09-20T18:32:37.025Z,24.87
2023-09-20T18:37:33.944Z,24.86
2023-09-20T18:42:34.434Z,24.81
2023-09-20T18:47:42.954Z,24.40
2023-09-20T18:52:43.810Z,24.69
2023-09-20T18:57:41.459Z,24.76
2023-09-20T19:02:38.417Z,24.68
2023-09-20T19:07:35.489Z,24.47
2023-09-20T19:12:32.371Z,24.59
2023-09-20T19:17:33.035Z,24.58
2023-09-20T19:22:30.012Z,24.09
2023-09-20T19:27:26.844Z,24.47
2023-09-20T19:32:23.692Z,24.29
2023-09-20T19:37:22.429Z,24.01
2023-09-20T19:42:19.874Z,24.34
2023-09-20T19:47:16.783Z,24.29
2023-09-20T19:52:15.266Z,23.94
2023-09-20T19:57:12.786Z,23.87
2023-09-20T20:02:09.541Z,24.10
2023-09-20T20:07:21.618Z,24.00
2023-09-20T20:12:24.973Z,23.69
2023-09-20T20:17:21.986Z,23.37
2023-09-20T20:22:22.393Z,23.07
2023-09-20T20:27:19.310Z,23.20
2023-09-20T20:32:19.954Z,23.11
2023-09-20T20:37:17.233Z,23.12
2023-09-20T20:42:14.100Z,23.13
2023-09-20T20:47:10.958Z,23.15
2023-09-20T20:52:08.577Z,23.05
2023-09-20T20:57:07.388Z,23.02
2023-09-20T21:02:07.776Z,23.08
2023-09-20T21:07:05.536Z,23.00
2023-09-20T21:12:10.320Z,22.93
2023-09-20T21:17:07.118Z,22.90
2023-09-20T21:22:04.428Z,22.89
2023-09-20T21:27:02.008Z,22.76
2023-09-20T21:31:58.802Z,22.96
2023-09-20T21:36:56.518Z,22.78
2023-09-20T21:41:56.130Z,22.51
2023-09-20T21:46:54.097Z,22.27
2023-09-20T21:51:51.008Z,22.22
2023-09-20T21:56:47.916Z,22.41
2023-09-20T22:01:44.683Z,22.63
2023-09-20T22:06:42.120Z,22.52
2023-09-20T22:11:38.868Z,22.49
2023-09-20T22:16:36.272Z,21.98
2023-09-20T22:21:33.275Z,22.09
2023-09-20T22:26:31.240Z,22.13
2023-09-20T22:31:29.393Z,22.00
2023-09-20T22:36:26.245Z,22.11
2023-09-20T22:41:24.629Z,22.09
2023-09-20T22:46:22.208Z,22.02
2023-09-20T22:51:21.538Z,22.14
2023-09-20T22:56:18.423Z,21.88
2023-09-20T23:01:15.980Z,21.97
2023-09-20T23:06:13.579Z,22.04
2023-09-20T23:11:12.285Z,22.20
2023-09-20T23:16:16.131Z,21.92
2023-09-20T23:21:16.150Z,22.22
2023-09-20T23:26:13.305Z,22.19
2023-09-20T23:31:13.499Z,22.12
2023-09-20T23:36:11.485Z,21.83
2023-09-20T23:41:15.186Z,21.79
2023-09-20T23:51:16.904Z,21.81
2023-09-20T23:56:14.389Z,21.83
